Time;durP1;ratioP1;P1;durP2;ratioP2;P2;SDS_P1;SDS_P2;PMS_P1;PMS_P2;Temp;Humidity;BMP_temperature;BMP_pressure;BME280_temperature;BME280_humidity;BME280_pressure;Samples;Min_cycle;Max_cycle;Signal;HPM_P1;HPM_P2
2023/05/22 00:00:07;;;;;;;9.67;7.67;;;;;;;17.75;99.29;99130.25;5074798;28;20189;-63
2023/05/22 00:02:37;;;;;;;10.63;7.73;;;;;;;17.74;98.92;99137.50;5074426;28;20194;-62
2023/05/22 00:05:05;;;;;;;8.03;7.30;;;;;;;17.66;98.59;99134.44;5062004;28;20583;-64
2023/05/22 00:07:33;;;;;;;11.03;7.77;;;;;;;17.60;98.20;99124.72;5054431;28;20203;-63
2023/05/22 00:10:00;;;;;;;8.83;7.97;;;;;;;17.55;99.82;99124.63;5054941;28;20196;-63
2023/05/22 00:12:27;;;;;;;9.03;7.60;;;;;;;17.60;100.00;99113.97;5072628;28;20215;-63
2023/05/22 00:14:53;;;;;;;8.60;7.93;;;;;;;17.60;99.36;99113.97;5074698;28;20277;-63
2023/05/22 00:17:20;;;;;;;7.90;7.13;;;;;;;17.72;99.34;99128.06;5074250;28;20683;-62
2023/05/22 00:19:47;;;;;;;8.33;7.67;;;;;;;17.71;99.68;99126.44;5074736;28;20567;-63
2023/05/22 00:22:13;;;;;;;7.53;6.90;;;;;;;17.76;100.00;99130.00;5073976;28;20195;-63
2023/05/22 00:24:41;;;;;;;7.40;6.90;;;;;;;17.79;100.00;99123.31;5074171;28;20680;-62
2023/05/22 00:27:08;;;;;;;7.87;7.27;;;;;;;17.87;99.00;99121.00;5074205;28;20239;-62
2023/05/22 00:29:35;;;;;;;7.40;6.80;;;;;;;17.91;97.39;99127.50;5073049;28;20219;-62
2023/05/22 00:32:01;;;;;;;7.57;6.80;;;;;;;17.98;98.36;99124.59;5074312;28;20195;-63
2023/05/22 00:34:28;;;;;;;7.30;6.27;;;;;;;18.03;97.56;99130.03;5074265;28;20223;-63
2023/05/22 00:36:55;;;;;;;13.20;7.63;;;;;;;18.02;97.60;99133.78;5074232;28;20192;-63
2023/05/22 00:39:22;;;;;;;9.43;8.50;;;;;;;18.03;98.09;99135.41;5073525;28;20192;-63
2023/05/22 00:41:50;;;;;;;26.37;9.50;;;;;;;18.01;97.62;99134.84;5073571;28;20618;-63
2023/05/22 00:44:16;;;;;;;13.37;8.93;;;;;;;18.04;97.52;99137.03;5073663;28;20200;-63
2023/05/22 00:46:43;;;;;;;9.77;7.87;;;;;;;18.11;96.92;99145.72;5073294;28;20202;-63
2023/05/22 00:49:10;;;;;;;10.80;6.97;;;;;;;18.05;96.67;99138.66;5073784;28;20193;-63
2023/05/22 00:51:37;;;;;;;17.23;8.27;;;;;;;18.11;97.81;99137.63;5073984;28;20780;-63
2023/05/22 00:54:04;;;;;;;15.23;7.50;;;;;;;18.13;97.36;99140.91;5073835;28;20568;-63
2023/05/22 00:56:31;;;;;;;14.50;7.67;;;;;;;18.17;97.72;99136.66;5073384;28;20184;-62
2023/05/22 00:59:00;;;;;;;11.53;6.67;;;;;;;18.15;96.76;99133.38;5073814;28;20321;-64
2023/05/22 01:01:32;;;;;;;7.10;6.50;;;;;;;18.06;96.83;99132.22;5073204;28;20684;-63
2023/05/22 01:04:00;;;;;;;11.13;6.23;;;;;;;18.16;97.31;99140.38;5073361;28;20185;-64
2023/05/22 01:06:27;;;;;;;7.17;6.47;;;;;;;18.25;95.90;99138.88;5073113;28;20205;-64
2023/05/22 01:08:54;;;;;;;6.30;5.70;;;;;;;18.25;95.78;99138.88;5073307;28;20729;-63
2023/05/22 01:11:26;;;;;;;6.87;6.17;;;;;;;18.31;95.32;99137.84;5073625;28;20195;-64
2023/05/22 01:14:00;;;;;;;6.67;5.90;;;;;;;18.39;94.76;99140.13;5073201;28;20586;-63
2023/05/22 01:16:37;;;;;;;7.20;5.97;;;;;;;18.39;94.76;99145.50;5073017;28;20261;-64
2023/05/22 01:19:14;;;;;;;7.23;6.47;;;;;;;18.33;93.66;99125.78;5073427;28;20188;-64
2023/05/22 01:21:47;;;;;;;8.77;5.77;;;;;;;18.31;93.64;99136.00;5073515;28;20188;-63
2023/05/22 01:24:52;;;;;;;6.23;5.73;;;;;;;18.19;94.90;99134.50;5072916;28;20265;-65
2023/05/22 01:27:54;;;;;;;8.33;6.23;;;;;;;18.19;95.10;99129.94;5031141;28;20192;-63
2023/05/22 01:30:50;;;;;;;8.10;5.87;;;;;;;18.22;95.23;99131.31;5053439;28;20276;-63
2023/05/22 01:33:20;;;;;;;7.33;6.03;;;;;;;18.25;95.09;99130.81;5048179;28;20193;-63
2023/05/22 01:35:52;;;;;;;6.07;5.47;;;;;;;18.30;94.62;99136.25;5066169;28;20194;-63
2023/05/22 01:38:20;;;;;;;6.43;5.93;;;;;;;18.32;94.31;99140.28;5072961;28;20184;-63
2023/05/22 01:40:48;;;;;;;6.73;6.23;;;;;;;18.36;93.76;99135.25;5073007;28;20297;-63
2023/05/22 01:43:15;;;;;;;5.93;5.53;;;;;;;18.39;93.48;99130.19;5073260;28;20203;-63
2023/05/22 01:45:42;;;;;;;7.10;5.60;;;;;;;18.39;93.24;99132.88;5072316;28;20215;-64
2023/05/22 01:48:09;;;;;;;6.43;5.77;;;;;;;18.37;93.55;99131.47;5072826;28;20200;-63
2023/05/22 01:50:37;;;;;;;6.60;6.00;;;;;;;18.37;94.06;99128.78;5072588;28;20188;-65
2023/05/22 01:53:12;;;;;;;6.53;5.90;;;;;;;18.29;94.74;99126.56;5072679;28;20188;-63
2023/05/22 01:55:44;;;;;;;8.10;5.77;;;;;;;18.29;96.31;99126.56;5072069;28;20217;-62
2023/05/22 01:58:20;;;;;;;11.03;6.47;;;;;;;18.30;95.54;99130.88;5072642;28;20184;-62
2023/05/22 02:00:50;;;;;;;10.10;6.00;;;;;;;18.27;95.57;99125.97;5072592;28;20214;-63
2023/05/22 02:03:20;;;;;;;6.47;5.97;;;;;;;18.27;96.67;99129.50;5072546;28;20618;-63
2023/05/22 02:05:53;;;;;;;6.77;6.00;;;;;;;18.26;96.20;99130.53;5071461;28;20671;-63
2023/05/22 02:08:20;;;;;;;6.80;6.20;;;;;;;18.26;96.17;99127.06;5072217;28;20188;-63
2023/05/22 02:10:48;;;;;;;7.17;6.53;;;;;;;18.24;96.60;99121.09;5072122;28;20261;-63
2023/05/22 02:13:15;;;;;;;6.60;6.10;;;;;;;18.20;95.58;99136.13;5071452;28;20192;-63
2023/05/22 02:15:45;;;;;;;7.17;6.57;;;;;;;18.09;96.05;99134.41;5071612;28;20215;-64
2023/05/22 02:18:12;;;;;;;10.20;6.13;;;;;;;18.04;96.06;99126.28;5071652;28;20245;-62
2023/05/22 02:20:39;;;;;;;7.27;6.27;;;;;;;18.12;97.37;99128.50;5072396;28;20208;-62
2023/05/22 02:23:07;;;;;;;10.63;6.40;;;;;;;18.07;96.32;99126.59;5071633;28;20195;-62
2023/05/22 02:25:34;;;;;;;10.57;6.30;;;;;;;18.06;97.20;99127.66;5072406;28;20264;-62
2023/05/22 02:28:00;;;;;;;9.03;6.57;;;;;;;18.10;97.65;99127.97;5071901;28;20663;-63
2023/05/22 02:30:27;;;;;;;6.37;5.80;;;;;;;18.12;97.88;99123.97;5071924;28;20277;-63
2023/05/22 02:32:56;;;;;;;12.27;6.37;;;;;;;18.08;97.15;99128.22;5071193;28;20207;-63
2023/05/22 02:35:22;;;;;;;6.30;5.70;;;;;;;18.04;96.90;99134.34;5068285;28;20273;-63
2023/05/22 02:37:49;;;;;;;6.33;5.93;;;;;;;18.14;97.66;99137.16;5061509;28;20330;-63
2023/05/22 02:40:18;;;;;;;6.23;5.60;;;;;;;18.18;96.60;99138.25;5060636;28;20271;-63
2023/05/22 02:42:44;;;;;;;8.80;6.00;;;;;;;18.19;96.75;99135.31;5069396;28;20553;-63
2023/05/22 02:45:11;;;;;;;7.43;5.77;;;;;;;18.11;96.45;99140.34;5070910;28;20192;-62
2023/05/22 02:47:38;;;;;;;10.00;6.70;;;;;;;17.96;96.90;99135.59;5071353;28;20188;-63
2023/05/22 02:50:05;;;;;;;8.93;6.37;;;;;;;17.94;97.88;99142.28;5068765;28;20195;-63
2023/05/22 02:52:32;;;;;;;12.47;7.23;;;;;;;17.97;98.09;99136.44;5067305;28;20196;-63
2023/05/22 02:54:59;;;;;;;7.97;6.57;;;;;;;18.03;98.05;99127.34;5071048;28;20288;-63
2023/05/22 02:57:27;;;;;;;8.50;5.70;;;;;;;18.05;97.74;99125.22;5071645;28;20184;-63
2023/05/22 02:59:54;;;;;;;9.30;5.80;;;;;;;18.08;98.55;99122.84;5071499;28;20198;-62
2023/05/22 03:02:20;;;;;;;7.57;6.67;;;;;;;18.09;97.12;99124.44;5065506;28;20228;-63
2023/05/22 03:04:47;;;;;;;6.57;5.80;;;;;;;18.11;98.05;99126.88;5061131;28;20195;-63
2023/05/22 03:07:14;;;;;;;10.13;6.13;;;;;;;18.17;97.82;99132.06;5060770;28;20192;-62
2023/05/22 03:09:40;;;;;;;8.00;5.57;;;;;;;18.20;97.39;99130.75;5062135;28;20188;-63
2023/05/22 03:12:08;;;;;;;8.37;6.17;;;;;;;18.24;97.00;99131.84;5062635;28;20192;-62
2023/05/22 03:14:36;;;;;;;7.17;6.37;;;;;;;18.27;96.74;99132.19;5060600;28;20258;-64
2023/05/22 03:17:03;;;;;;;14.90;6.47;;;;;;;18.24;96.15;99131.84;5059820;28;20193;-63
2023/05/22 03:19:30;;;;;;;12.57;6.50;;;;;;;18.20;96.52;99131.56;5062919;28;20233;-63
2023/05/22 03:21:56;;;;;;;10.83;6.30;;;;;;;18.21;96.60;99135.06;5062660;28;20196;-62
2023/05/22 03:24:23;;;;;;;8.23;6.20;;;;;;;18.18;95.77;99135.56;5072033;28;20200;-63
2023/05/22 03:26:50;;;;;;;14.77;11.83;;;;;;;18.12;96.18;99136.56;5074514;28;20196;-63
2023/05/22 03:29:17;;;;;;;12.23;6.50;;;;;;;18.17;97.58;99137.44;5074546;28;20272;-62
2023/05/22 03:31:45;;;;;;;9.30;6.63;;;;;;;18.20;97.32;99130.75;5074014;28;20685;-63
2023/05/22 03:34:11;;;;;;;12.77;6.83;;;;;;;18.25;97.68;99133.50;5072172;28;20222;-62
2023/05/22 03:36:38;;;;;;;13.17;6.50;;;;;;;18.24;96.82;99139.94;5075022;28;20238;-63
2023/05/22 03:39:05;;;;;;;12.87;7.10;;;;;;;18.29;96.79;99135.41;5074504;28;20196;-63
2023/05/22 03:41:32;;;;;;;7.93;6.33;;;;;;;18.31;95.88;99143.22;5066302;28;20193;-61
2023/05/22 03:43:59;;;;;;;11.90;7.17;;;;;;;18.37;95.56;99136.84;5070957;28;20219;-62
2023/05/22 03:46:26;;;;;;;10.30;6.87;;;;;;;18.36;95.30;99137.94;5074770;28;20275;-62
2023/05/22 03:48:54;;;;;;;14.63;7.13;;;;;;;18.41;96.10;99137.97;5074428;28;20199;-62
2023/05/22 03:51:20;;;;;;;17.33;7.70;;;;;;;18.47;95.63;99136.97;5064259;28;20197;-63
2023/05/22 03:53:47;;;;;;;14.77;7.30;;;;;;;18.46;95.36;99146.09;5065296;28;20193;-63
2023/05/22 03:56:14;;;;;;;13.67;7.00;;;;;;;18.41;95.48;99138.78;5071293;28;20262;-64
2023/05/22 03:58:40;;;;;;;11.63;7.17;;;;;;;18.42;95.12;99140.41;5073955;28;20192;-63
2023/05/22 04:01:08;;;;;;;13.50;6.97;;;;;;;18.48;95.44;99122.44;5074302;28;20746;-63
2023/05/22 04:03:35;;;;;;;18.80;6.27;;;;;;;18.70;91.74;99148.19;5065083;28;20616;-63
2023/05/22 04:06:04;;;;;;;10.67;6.27;;;;;;;18.61;90.57;99148.91;5064343;28;20197;-63
2023/05/22 04:08:31;;;;;;;11.10;6.50;;;;;;;18.66;91.90;99149.78;5073531;28;20180;-63
2023/05/22 04:10:57;;;;;;;13.17;5.63;;;;;;;18.70;90.99;99150.09;5074158;28;20200;-64
2023/05/22 04:13:24;;;;;;;9.87;6.57;;;;;;;18.69;90.91;99146.59;5073670;28;20243;-63
2023/05/22 04:15:52;;;;;;;9.47;5.43;;;;;;;18.63;90.48;99152.19;5073861;28;20236;-63
2023/05/22 04:18:19;;;;;;;9.47;6.13;;;;;;;18.61;90.34;99154.28;5073710;28;20188;-63
2023/05/22 04:20:45;;;;;;;12.57;6.53;;;;;;;18.65;90.40;99155.41;5073743;28;20192;-63
2023/05/22 04:23:13;;;;;;;8.77;5.63;;;;;;;18.76;90.31;99151.75;5073189;28;20227;-64
2023/05/22 04:25:40;;;;;;;11.97;7.03;;;;;;;18.78;89.44;99146.94;5073413;28;20232;-64
2023/05/22 04:28:08;;;;;;;8.67;5.80;;;;;;;18.69;89.17;99143.06;5073435;28;20246;-64
2023/05/22 04:30:35;;;;;;;19.73;6.47;;;;;;;18.64;89.22;99154.63;5073815;28;20253;-63
2023/05/22 04:33:04;;;;;;;15.90;8.83;;;;;;;18.62;89.47;99148.66;5072947;28;20210;-64
2023/05/22 04:35:30;;;;;;;7.97;6.30;;;;;;;18.68;90.53;99150.34;5064037;28;20213;-64
2023/05/22 04:38:00;;;;;;;12.17;6.33;;;;;;;18.70;89.64;99152.78;5063065;28;20194;-64
2023/05/22 04:40:32;;;;;;;15.77;6.77;;;;;;;18.71;89.26;99160.56;5053663;28;20198;-64
2023/05/22 04:42:59;;;;;;;14.90;7.17;;;;;;;18.70;88.76;99164.34;5056848;28;20658;-64
2023/05/22 04:45:27;;;;;;;9.83;6.80;;;;;;;18.72;90.82;99162.22;5073596;28;20207;-64
2023/05/22 04:47:54;;;;;;;13.20;6.43;;;;;;;18.95;90.89;99159.16;5073868;28;20626;-64
2023/05/22 04:50:22;;;;;;;9.73;6.60;;;;;;;18.99;86.01;99162.16;5073306;28;20197;-64
2023/05/22 04:52:49;;;;;;;8.67;7.00;;;;;;;18.98;86.49;99165.91;5073395;28;20195;-65
2023/05/22 04:55:16;;;;;;;12.13;7.63;;;;;;;19.00;86.45;99166.47;5073710;28;20231;-65
2023/05/22 04:57:44;;;;;;;16.40;7.30;;;;;;;19.11;85.63;99160.91;5073613;28;20198;-61
2023/05/22 05:00:12;;;;;;;15.10;6.77;;;;;;;19.53;84.17;99169.00;5073317;28;20287;-66
2023/05/22 05:02:39;;;;;;;12.57;9.00;;;;;;;20.42;80.34;99178.53;5072999;28;20294;-66
2023/05/22 05:05:07;;;;;;;16.00;9.13;;;;;;;20.82;77.74;99183.97;5072818;28;20675;-66
2023/05/22 05:07:37;;;;;;;37.47;18.47;;;;;;;20.60;77.81;99180.72;5072965;28;20237;-66
2023/05/22 05:10:04;;;;;;;18.57;9.10;;;;;;;20.20;79.02;99175.22;5072816;28;20210;-66
2023/05/22 05:12:31;;;;;;;11.07;8.90;;;;;;;19.79;80.77;99168.03;5072709;28;20549;-65
2023/05/22 05:14:59;;;;;;;10.23;8.00;;;;;;;19.60;81.61;99172.28;5072555;28;20650;-68
2023/05/22 05:17:25;;;;;;;21.87;12.80;;;;;;;19.59;84.24;99157.16;5073256;28;20552;-66
2023/05/22 05:19:52;;;;;;;15.20;7.60;;;;;;;19.64;83.83;99165.31;5072853;28;20253;-66
2023/05/22 05:22:19;;;;;;;35.10;21.70;;;;;;;19.80;85.30;99161.56;5071923;28;20192;-66
2023/05/22 05:24:45;;;;;;;34.93;17.93;;;;;;;20.04;85.22;99160.88;5072852;28;20195;-66
2023/05/22 05:27:12;;;;;;;10.67;7.27;;;;;;;20.14;81.28;99171.72;5073147;28;20261;-65
2023/05/22 05:29:40;;;;;;;10.80;7.67;;;;;;;20.08;80.97;99177.31;5072657;28;20234;-65
2023/05/22 05:32:08;;;;;;;17.17;8.00;;;;;;;20.09;81.83;99178.97;5072467;28;20200;-65
2023/05/22 05:34:35;;;;;;;10.67;8.67;;;;;;;20.34;82.86;99173.66;5073065;28;20202;-66
2023/05/22 05:37:02;;;;;;;11.97;8.83;;;;;;;20.53;82.73;99164.78;5072616;28;20188;-69
2023/05/22 05:39:29;;;;;;;13.40;9.67;;;;;;;20.87;80.68;99184.00;5072824;28;20199;-71
2023/05/22 05:41:56;;;;;;;12.20;7.47;;;;;;;20.97;79.71;99181.31;5068822;28;20196;-74
2023/05/22 05:44:23;;;;;;;12.17;8.40;;;;;;;20.94;78.38;99192.66;5067159;28;20253;-72
2023/05/22 05:46:49;;;;;;;9.27;8.23;;;;;;;20.95;80.11;99188.06;5068428;28;20192;-71
2023/05/22 05:49:19;;;;;;;13.47;7.97;;;;;;;21.00;78.03;99199.69;5068300;28;20722;-74
2023/05/22 05:51:46;;;;;;;16.50;7.90;;;;;;;20.86;78.63;99200.47;5068039;28;20578;-72
2023/05/22 05:54:12;;;;;;;9.17;8.27;;;;;;;20.78;79.41;99215.28;5068879;28;20200;-72
2023/05/22 05:56:39;;;;;;;13.67;8.07;;;;;;;20.68;80.64;99193.69;5070882;28;20703;-77
2023/05/22 05:59:06;;;;;;;13.63;9.73;;;;;;;20.82;81.15;99200.16;5069587;28;20215;-73
2023/05/22 06:01:34;;;;;;;10.17;7.63;;;;;;;20.83;81.86;99198.28;5070482;28;20250;-75
2023/05/22 06:04:04;;;;;;;13.80;8.33;;;;;;;20.99;80.78;99200.75;5065738;28;20254;-71
2023/05/22 06:06:34;;;;;;;11.63;8.70;;;;;;;21.14;81.63;99200.75;5071859;28;20261;-72
2023/05/22 06:09:01;;;;;;;11.10;9.53;;;;;;;21.41;82.92;99197.75;5068466;28;20668;-75
2023/05/22 06:11:28;;;;;;;11.50;8.90;;;;;;;21.89;79.50;99216.84;5069664;28;20188;-73
2023/05/22 06:13:55;;;;;;;14.10;9.30;;;;;;;22.21;76.77;99222.66;5070866;28;20691;-75
2023/05/22 06:16:22;;;;;;;11.43;8.37;;;;;;;22.35;77.00;99226.41;5066579;28;20219;-68
2023/05/22 06:18:51;;;;;;;14.93;9.43;;;;;;;22.62;76.75;99226.81;5070742;28;20270;-71
2023/05/22 06:21:19;;;;;;;10.17;8.70;;;;;;;22.66;75.52;99238.69;5069005;28;20234;-68
2023/05/22 06:23:48;;;;;;;10.10;8.63;;;;;;;22.67;74.21;99240.31;5070544;28;20249;-69
2023/05/22 06:26:15;;;;;;;9.43;8.43;;;;;;;22.69;74.28;99237.31;5069084;28;20196;-68
2023/05/22 06:28:42;;;;;;;9.73;8.77;;;;;;;22.62;72.95;99240.34;5069685;28;20580;-70
2023/05/22 06:31:09;;;;;;;12.33;7.33;;;;;;;22.49;70.92;99248.25;5063841;28;20219;-70
2023/05/22 06:33:36;;;;;;;9.90;7.13;;;;;;;22.38;70.75;99243.97;5069474;28;20220;-70
2023/05/22 06:36:03;;;;;;;13.60;6.57;;;;;;;22.30;70.31;99239.94;5069772;28;20220;-70
2023/05/22 06:38:31;;;;;;;13.63;7.90;;;;;;;22.31;70.92;99238.06;5070314;28;20192;-70
2023/05/22 06:40:59;;;;;;;11.87;7.73;;;;;;;22.47;70.02;99251.28;5070527;28;20204;-70
2023/05/22 06:43:26;;;;;;;9.00;7.87;;;;;;;22.78;71.27;99241.88;5070636;28;20201;-66
2023/05/22 06:45:52;;;;;;;8.30;7.57;;;;;;;23.22;68.17;99253.50;5070325;28;20253;-67
2023/05/22 06:48:19;;;;;;;6.70;5.80;;;;;;;23.55;63.58;99258.09;5069885;28;20188;-69
2023/05/22 06:50:46;;;;;;;5.90;5.40;;;;;;;23.86;62.11;99258.59;5069914;28;20189;-66
2023/05/22 06:53:12;;;;;;;6.67;5.40;;;;;;;24.03;60.56;99262.50;5070626;28;20238;-68
2023/05/22 06:55:39;;;;;;;7.20;5.60;;;;;;;24.34;61.38;99254.81;5070114;28;20724;-65
2023/05/22 06:58:07;;;;;;;11.53;5.00;;;;;;;24.84;58.75;99254.91;5067349;28;20190;-67
2023/05/22 07:00:34;;;;;;;12.63;4.57;;;;;;;25.56;56.04;99260.88;5073757;28;20895;-67
2023/05/22 07:03:01;;;;;;;6.43;3.70;;;;;;;26.18;50.74;99265.72;5074209;28;20191;-65
2023/05/22 07:05:28;;;;;;;5.90;4.33;;;;;;;26.94;49.67;99276.59;5070245;28;20258;-68
2023/05/22 07:07:54;;;;;;;5.83;3.60;;;;;;;27.59;47.09;99267.66;5071508;28;20642;-66
2023/05/22 07:10:21;;;;;;;6.00;4.07;;;;;;;28.07;43.73;99257.66;5073891;28;20192;-64
2023/05/22 07:12:48;;;;;;;12.27;4.20;;;;;;;28.14;41.95;99252.53;5073571;28;20253;-65
2023/05/22 07:15:17;;;;;;;9.63;4.57;;;;;;;28.32;40.84;99237.81;5070889;28;20740;-73
2023/05/22 07:17:45;;;;;;;7.20;4.80;;;;;;;28.67;44.99;99241.44;5069721;28;20193;-75
2023/05/22 07:20:15;;;;;;;5.57;4.20;;;;;;;28.67;41.40;99244.19;5072687;28;20246;-75
2023/05/22 07:22:44;;;;;;;6.90;3.90;;;;;;;28.82;40.05;99244.50;5073855;28;20196;-74
2023/05/22 07:25:11;;;;;;;8.70;4.37;;;;;;;28.92;38.96;99226.97;5065684;28;20196;-72
2023/05/22 07:27:39;;;;;;;5.23;4.40;;;;;;;29.19;38.42;99234.84;5072398;28;20200;-73
2023/05/22 07:30:11;;;;;;;6.63;3.83;;;;;;;29.07;37.09;99242.91;5068562;28;20245;-74
2023/05/22 07:32:41;;;;;;;7.83;3.83;;;;;;;28.85;38.62;99241.13;5071397;28;20188;-73
2023/05/22 07:35:11;;;;;;;62.23;8.37;;;;;;;28.75;37.89;99229.72;5073155;28;20693;-78
2023/05/22 07:37:40;;;;;;;16.30;4.57;;;;;;;28.77;39.06;99238.38;5071763;28;20218;-76
2023/05/22 07:40:18;;;;;;;27.87;5.53;;;;;;;29.05;40.02;99234.22;5071804;28;20219;-69
2023/05/22 07:42:56;;;;;;;6.17;3.83;;;;;;;29.33;37.87;99240.16;5072588;28;20198;-69
2023/05/22 07:45:26;;;;;;;6.67;3.87;;;;;;;29.44;35.99;99242.25;5073241;28;20195;-69
2023/05/22 07:48:03;;;;;;;16.47;4.40;;;;;;;29.68;35.46;99236.25;5073453;28;20215;-75
2023/05/22 07:53:19;;;;;;;9.50;3.97;;;;;;;29.48;32.67;99234.97;5072325;28;20192;-70
2023/05/22 07:55:47;;;;;;;9.67;3.73;;;;;;;29.31;35.88;99234.22;5072351;28;20250;-75
2023/05/22 07:58:15;;;;;;;8.87;3.90;;;;;;;29.31;34.89;99237.72;5071130;28;20196;-73
2023/05/22 08:00:42;;;;;;;12.03;3.87;;;;;;;29.35;35.32;99222.28;5073337;28;20195;-75
2023/05/22 08:03:10;;;;;;;15.67;4.53;;;;;;;29.52;34.57;99230.44;5072926;28;20195;-74
2023/05/22 08:05:37;;;;;;;10.50;3.70;;;;;;;29.64;34.68;99236.06;5072787;28;20184;-74
2023/05/22 08:08:04;;;;;;;8.43;4.27;;;;;;;29.60;33.39;99229.66;5073244;28;20192;-69
2023/05/22 08:10:31;;;;;;;10.70;3.50;;;;;;;29.48;35.17;99237.69;5072413;28;20245;-69
2023/05/22 08:13:01;;;;;;;5.77;3.33;;;;;;;29.48;34.47;99234.97;5072934;28;20639;-72
2023/05/22 08:15:27;;;;;;;10.73;3.63;;;;;;;29.46;34.91;99223.53;5067526;28;20249;-75
2023/05/22 08:17:54;;;;;;;12.87;4.37;;;;;;;28.86;36.17;99214.56;5071051;28;20195;-73
2023/05/22 08:20:22;;;;;;;13.47;3.80;;;;;;;28.88;35.05;99236.94;5073026;28;20196;-72
2023/05/22 08:22:49;;;;;;;43.57;5.23;;;;;;;28.91;34.40;99231.63;5071949;28;20614;-72
2023/05/22 08:25:16;;;;;;;8.60;4.17;;;;;;;28.93;33.26;99237.59;5072643;28;20656;-72
2023/05/22 08:27:43;;;;;;;10.73;3.57;;;;;;;29.09;33.21;99236.00;5072425;28;20257;-72
2023/05/22 08:30:10;;;;;;;24.07;4.00;;;;;;;29.27;33.52;99231.31;5073000;28;20282;-73
2023/05/22 08:32:37;;;;;;;12.50;4.40;;;;;;;29.36;33.79;99223.91;5072804;28;20737;-72
2023/05/22 08:35:04;;;;;;;6.20;4.60;;;;;;;29.45;33.39;99230.16;5072611;28;20191;-73
2023/05/22 08:37:32;;;;;;;10.20;6.23;;;;;;;29.41;34.52;99226.47;5072773;28;20297;-74
2023/05/22 08:39:59;;;;;;;5.80;4.03;;;;;;;28.70;33.83;99216.97;5070728;28;20722;-72
2023/05/22 08:42:26;;;;;;;6.27;3.90;;;;;;;29.07;34.95;99221.03;5072974;28;20598;-72
2023/05/22 08:44:54;;;;;;;31.77;4.97;;;;;;;29.56;33.76;99228.66;5072269;28;20207;-72
2023/05/22 08:47:23;;;;;;;5.97;3.63;;;;;;;29.88;35.12;99219.09;5071303;28;20234;-73
2023/05/22 08:49:53;;;;;;;5.93;4.13;;;;;;;30.06;34.35;99212.41;5071294;28;20210;-73
2023/05/22 08:52:22;;;;;;;6.27;3.67;;;;;;;30.19;32.96;99225.91;5072110;28;20192;-74
2023/05/22 08:54:55;;;;;;;11.07;4.03;;;;;;;30.17;34.41;99222.69;5071244;28;20584;-73
2023/05/22 08:57:25;;;;;;;7.20;3.60;;;;;;;30.50;34.08;99226.34;5072106;28;20226;-70
2023/05/22 08:59:53;;;;;;;8.60;3.80;;;;;;;30.52;33.49;99215.84;5070132;28;20485;-71
2023/05/22 09:02:24;;;;;;;10.23;3.70;;;;;;;30.59;35.58;99218.88;5069999;28;20204;-73
2023/05/22 09:04:57;;;;;;;10.10;3.73;;;;;;;30.51;33.74;99217.00;5068652;28;20282;-68
2023/05/22 09:07:26;;;;;;;8.23;3.90;;;;;;;30.36;32.58;99214.84;5069920;28;20188;-69
2023/05/22 09:09:55;;;;;;;6.77;3.37;;;;;;;30.28;33.13;99207.47;5071329;28;20215;-75
2023/05/22 09:12:26;;;;;;;6.40;3.57;;;;;;;30.43;32.33;99220.59;5069539;28;20905;-70
2023/05/22 09:14:54;;;;;;;7.23;3.60;;;;;;;30.75;31.55;99213.63;5071537;28;20267;-70
2023/05/22 09:17:22;;;;;;;5.83;4.00;;;;;;;30.86;32.02;99218.34;5070819;28;20223;-68
2023/05/22 09:19:53;;;;;;;5.03;3.60;;;;;;;31.25;32.84;99214.31;5071432;28;20207;-70
2023/05/22 09:22:20;;;;;;;7.47;3.70;;;;;;;31.54;32.54;99217.75;5065503;28;20600;-71
2023/05/22 09:24:50;;;;;;;7.73;4.03;;;;;;;31.59;32.00;99214.78;5070735;28;20200;-70
2023/05/22 09:27:25;;;;;;;4.10;3.50;;;;;;;31.70;32.19;99220.63;5069718;28;20192;-74
2023/05/22 09:29:58;;;;;;;10.43;4.10;;;;;;;31.86;30.93;99216.91;5069084;28;20598;-68
2023/05/22 09:32:29;;;;;;;7.53;3.20;;;;;;;31.95;30.65;99217.59;5063330;28;20196;-72
2023/05/22 09:35:02;;;;;;;5.17;3.50;;;;;;;31.81;29.82;99211.63;5070735;28;20652;-67
2023/05/22 09:37:34;;;;;;;4.77;3.50;;;;;;;31.88;29.74;99213.78;5071511;28;20287;-67
2023/05/22 09:40:05;;;;;;;3.80;3.50;;;;;;;31.58;30.31;99207.69;5066731;28;20263;-67
2023/05/22 09:42:34;;;;;;;3.40;3.10;;;;;;;31.25;30.41;99217.88;5069220;28;20188;-67
2023/05/22 09:45:06;;;;;;;12.87;3.73;;;;;;;30.54;30.83;99202.59;5070547;28;20204;-66
2023/05/22 09:47:34;;;;;;;3.50;3.20;;;;;;;30.29;31.56;99225.50;5071304;28;20199;-65
2023/05/22 09:50:03;;;;;;;5.40;3.30;;;;;;;30.42;30.59;99205.25;5070236;28;20268;-65
2023/05/22 09:52:33;;;;;;;8.37;3.53;;;;;;;30.47;31.07;99209.75;5066071;28;20192;-67
2023/05/22 09:55:03;;;;;;;3.90;3.40;;;;;;;29.87;32.93;99198.28;5068956;28;20199;-66
2023/05/22 09:57:32;;;;;;;5.63;3.40;;;;;;;29.70;33.31;99195.63;5070876;28;20215;-64
2023/05/22 10:00:08;;;;;;;5.70;3.50;;;;;;;29.67;33.78;99190.84;5070848;28;20671;-65
2023/05/22 10:02:36;;;;;;;11.70;3.67;;;;;;;29.61;33.17;99187.47;5071777;28;20186;-65
2023/05/22 10:05:06;;;;;;;4.23;3.00;;;;;;;29.88;32.28;99197.97;5065239;28;20238;-65
2023/05/22 10:07:37;;;;;;;3.77;3.40;;;;;;;30.04;31.45;99190.03;5070726;28;20253;-65
2023/05/22 10:10:07;;;;;;;3.37;3.03;;;;;;;29.95;30.67;99194.72;5070186;28;20223;-64
2023/05/22 10:12:48;;;;;;;3.50;3.20;;;;;;;29.85;31.90;99190.44;5068121;28;20254;-66
2023/05/22 10:15:17;;;;;;;5.90;3.50;;;;;;;29.63;32.78;99179.72;5067616;28;20631;-65
2023/05/22 10:17:45;;;;;;;4.60;3.53;;;;;;;29.45;32.47;99183.63;5069659;28;20660;-65
2023/05/22 10:20:13;;;;;;;3.00;2.80;;;;;;;29.10;32.09;99182.91;5068992;28;21010;-66
2023/05/22 10:22:40;;;;;;;5.23;3.37;;;;;;;29.06;31.85;99181.13;5068568;28;20237;-69
2023/05/22 10:25:08;;;;;;;5.30;2.97;;;;;;;29.27;32.25;99176.56;5068470;28;20748;-66
2023/05/22 10:27:35;;;;;;;3.67;3.10;;;;;;;29.27;31.30;99179.31;5067299;28;20215;-68
2023/05/22 10:30:13;;;;;;;3.13;2.83;;;;;;;29.26;31.62;99180.44;5066864;28;20215;-67
2023/05/22 10:32:45;;;;;;;4.63;3.20;;;;;;;29.27;32.07;99185.59;5069328;28;20184;-70
2023/05/22 10:35:19;;;;;;;4.27;2.93;;;;;;;29.46;30.88;99178.94;5065591;28;20198;-69
2023/05/22 10:37:50;;;;;;;4.67;3.47;;;;;;;29.58;30.99;99177.16;5067446;28;20191;-68
2023/05/22 10:40:27;;;;;;;6.57;3.27;;;;;;;29.86;30.95;99183.81;5069040;28;20188;-67
2023/05/22 10:42:57;;;;;;;7.90;3.50;;;;;;;29.73;30.32;99178.56;5069559;28;20199;-70
2023/05/22 10:45:26;;;;;;;4.10;3.27;;;;;;;29.72;30.45;99183.22;5069824;28;20202;-74
2023/05/22 10:48:04;;;;;;;3.67;3.30;;;;;;;29.51;30.52;99176.03;5069351;28;20250;-73
2023/05/22 10:50:30;;;;;;;7.53;3.23;;;;;;;29.56;30.80;99160.22;5070006;28;20212;-74
2023/05/22 10:53:30;;;;;;;3.77;3.40;;;;;;;29.69;31.32;99167.47;5069595;28;20552;-73
2023/05/22 10:56:01;;;;;;;4.23;3.83;;;;;;;29.83;31.14;99162.56;5063364;28;20242;-72
2023/05/22 10:58:29;;;;;;;3.40;3.17;;;;;;;29.88;30.10;99156.88;5070777;28;20223;-75
2023/05/22 11:01:21;;;;;;;20.60;4.07;;;;;;;29.72;30.61;99150.34;5068862;28;20196;-73
2023/05/22 11:03:55;;;;;;;6.77;3.40;;;;;;;29.57;31.05;99142.72;5037902;28;20188;-72
2023/05/22 11:06:34;;;;;;;21.80;13.47;;;;;;;29.31;31.16;99150.16;5069367;28;20192;-74
2023/05/22 11:09:17;;;;;;;3.20;2.83;;;;;;;29.44;30.52;99138.22;5066692;28;20200;-73
2023/05/22 11:11:47;;;;;;;3.87;2.60;;;;;;;29.54;29.42;99123.34;5070791;28;20223;-73
2023/05/22 11:14:18;;;;;;;3.70;3.17;;;;;;;29.77;30.01;99133.75;5070034;28;20202;-73
2023/05/22 11:16:47;;;;;;;5.57;2.73;;;;;;;29.83;29.82;99140.63;5068372;28;20198;-73
2023/05/22 11:19:16;;;;;;;2.57;2.47;;;;;;;29.27;28.83;99132.00;5070690;28;20195;-72
2023/05/22 11:21:46;;;;;;;6.80;3.00;;;;;;;29.70;28.96;99133.47;5068988;28;20265;-78
2023/05/22 11:24:16;;;;;;;3.33;3.13;;;;;;;29.04;29.67;99139.63;5071327;28;20659;-76
2023/05/22 11:26:44;;;;;;;38.00;5.30;;;;;;;29.19;28.92;99130.88;5071164;28;20216;-76
2023/05/22 11:29:16;;;;;;;5.30;3.07;;;;;;;29.07;27.95;99138.94;5070426;28;20199;-75
2023/05/22 11:31:43;;;;;;;3.70;3.13;;;;;;;28.90;28.82;99133.47;5069427;28;20180;-72
2023/05/22 11:34:22;;;;;;;9.47;3.33;;;;;;;28.94;29.78;99134.44;5070284;28;20721;-74
2023/05/22 11:36:54;;;;;;;9.43;3.47;;;;;;;28.86;30.28;99127.06;5066214;28;20184;-73
2023/05/22 11:39:22;;;;;;;3.43;2.80;;;;;;;28.80;30.24;99134.66;5071136;28;20190;-73